sensor_id;sensor_type;location;lat;lon;timestamp;pressure;altitude;pressure_sealevel;temperature;humidity
51468;BME280;37545;45.302;-122.946;2022-08-19T00:01:29;100511.59;;;31.38;43.19
51468;BME280;37545;45.302;-122.946;2022-08-19T00:03:58;100520.94;;;31.30;45.56
51468;BME280;37545;45.302;-122.946;2022-08-19T00:06:27;100518.56;;;31.26;46.15
51468;BME280;37545;45.302;-122.946;2022-08-19T00:08:56;100527.63;;;31.23;47.65
51468;BME280;37545;45.302;-122.946;2022-08-19T00:11:26;100532.47;;;31.17;47.40
51468;BME280;37545;45.302;-122.946;2022-08-19T00:13:55;100542.22;;;31.18;47.60
51468;BME280;37545;45.302;-122.946;2022-08-19T00:16:35;100535.50;;;31.10;46.74
51468;BME280;37545;45.302;-122.946;2022-08-19T00:19:16;100543.03;;;31.04;47.79
51468;BME280;37545;45.302;-122.946;2022-08-19T00:21:45;100540.47;;;31.02;48.04
51468;BME280;37545;45.302;-122.946;2022-08-19T00:24:14;100537.44;;;31.08;48.92
51468;BME280;37545;45.302;-122.946;2022-08-19T00:26:43;100520.16;;;31.14;47.78
51468;BME280;37545;45.302;-122.946;2022-08-19T00:29:14;100514.75;;;31.16;45.62
51468;BME280;37545;45.302;-122.946;2022-08-19T00:31:45;100498.59;;;31.17;46.98
51468;BME280;37545;45.302;-122.946;2022-08-19T00:34:14;100503.00;;;31.18;48.86
51468;BME280;37545;45.302;-122.946;2022-08-19T00:36:43;100492.38;;;31.17;48.31
51468;BME280;37545;45.302;-122.946;2022-08-19T00:39:13;100496.03;;;31.16;44.41
51468;BME280;37545;45.302;-122.946;2022-08-19T00:41:43;100515.00;;;31.11;47.20
51468;BME280;37545;45.302;-122.946;2022-08-19T00:44:14;100515.38;;;31.05;46.46
51468;BME280;37545;45.302;-122.946;2022-08-19T00:46:49;100508.41;;;31.02;48.91
51468;BME280;37545;45.302;-122.946;2022-08-19T00:49:20;100494.28;;;31.00;47.69
51468;BME280;37545;45.302;-122.946;2022-08-19T00:51:53;100492.66;;;30.98;47.89
51468;BME280;37545;45.302;-122.946;2022-08-19T00:54:23;100468.19;;;30.89;48.34
51468;BME280;37545;45.302;-122.946;2022-08-19T00:56:53;100446.06;;;30.87;46.99
51468;BME280;37545;45.302;-122.946;2022-08-19T00:59:23;100430.53;;;30.78;45.86
51468;BME280;37545;45.302;-122.946;2022-08-19T01:01:54;100427.03;;;30.78;45.92
51468;BME280;37545;45.302;-122.946;2022-08-19T01:04:23;100434.09;;;30.79;45.44
51468;BME280;37545;45.302;-122.946;2022-08-19T01:06:51;100430.47;;;30.80;47.84
51468;BME280;37545;45.302;-122.946;2022-08-19T01:09:20;100442.66;;;30.69;47.86
51468;BME280;37545;45.302;-122.946;2022-08-19T01:11:49;100471.31;;;30.52;47.70
51468;BME280;37545;45.302;-122.946;2022-08-19T01:14:18;100489.72;;;30.24;49.35
51468;BME280;37545;45.302;-122.946;2022-08-19T01:16:47;100473.81;;;30.07;48.97
51468;BME280;37545;45.302;-122.946;2022-08-19T01:19:23;100453.41;;;30.06;49.21
51468;BME280;37545;45.302;-122.946;2022-08-19T01:21:59;100434.56;;;30.09;48.89
51468;BME280;37545;45.302;-122.946;2022-08-19T01:24:30;100427.94;;;30.16;48.20
51468;BME280;37545;45.302;-122.946;2022-08-19T01:26:59;100420.69;;;30.18;49.29
51468;BME280;37545;45.302;-122.946;2022-08-19T01:29:27;100453.50;;;30.20;48.89
51468;BME280;37545;45.302;-122.946;2022-08-19T01:31:56;100448.25;;;30.03;48.69
51468;BME280;37545;45.302;-122.946;2022-08-19T01:34:26;100432.59;;;29.97;49.17
51468;BME280;37545;45.302;-122.946;2022-08-19T01:36:54;100405.94;;;29.97;47.79
51468;BME280;37545;45.302;-122.946;2022-08-19T01:39:24;100420.97;;;29.98;48.48
51468;BME280;37545;45.302;-122.946;2022-08-19T01:41:54;100444.19;;;29.80;47.79
51468;BME280;37545;45.302;-122.946;2022-08-19T01:44:23;100440.94;;;29.75;48.43
51468;BME280;37545;45.302;-122.946;2022-08-19T01:46:52;100392.28;;;29.71;49.14
51468;BME280;37545;45.302;-122.946;2022-08-19T01:49:22;100402.94;;;29.71;48.95
51468;BME280;37545;45.302;-122.946;2022-08-19T01:51:51;100410.81;;;29.73;48.76
51468;BME280;37545;45.302;-122.946;2022-08-19T01:54:27;100436.72;;;29.71;49.67
51468;BME280;37545;45.302;-122.946;2022-08-19T01:56:59;100458.25;;;29.66;49.71
51468;BME280;37545;45.302;-122.946;2022-08-19T01:59:29;100446.22;;;29.59;49.99
51468;BME280;37545;45.302;-122.946;2022-08-19T02:01:59;100436.50;;;29.58;49.63
51468;BME280;37545;45.302;-122.946;2022-08-19T02:04:27;100462.22;;;29.59;49.33
51468;BME280;37545;45.302;-122.946;2022-08-19T02:06:57;100460.50;;;29.58;51.00
51468;BME280;37545;45.302;-122.946;2022-08-19T02:09:26;100456.09;;;29.57;50.93
51468;BME280;37545;45.302;-122.946;2022-08-19T02:11:54;100446.41;;;29.56;50.89
51468;BME280;37545;45.302;-122.946;2022-08-19T02:14:25;100433.00;;;29.57;49.46
51468;BME280;37545;45.302;-122.946;2022-08-19T02:16:53;100428.50;;;29.58;47.83
51468;BME280;37545;45.302;-122.946;2022-08-19T02:19:22;100435.56;;;29.59;50.17
51468;BME280;37545;45.302;-122.946;2022-08-19T02:21:50;100442.94;;;29.54;50.99
51468;BME280;37545;45.302;-122.946;2022-08-19T02:24:19;100430.66;;;29.51;51.21
51468;BME280;37545;45.302;-122.946;2022-08-19T02:26:48;100416.63;;;29.48;49.95
51468;BME280;37545;45.302;-122.946;2022-08-19T02:29:16;100420.38;;;29.43;48.85
51468;BME280;37545;45.302;-122.946;2022-08-19T02:31:47;100427.00;;;29.36;49.98
51468;BME280;37545;45.302;-122.946;2022-08-19T02:34:15;100437.59;;;29.38;48.80
51468;BME280;37545;45.302;-122.946;2022-08-19T02:36:44;100456.00;;;29.42;49.08
51468;BME280;37545;45.302;-122.946;2022-08-19T02:39:12;100471.81;;;29.45;47.91
51468;BME280;37545;45.302;-122.946;2022-08-19T02:41:40;100488.53;;;29.49;47.63
51468;BME280;37545;45.302;-122.946;2022-08-19T02:44:08;100474.22;;;29.50;47.33
51468;BME280;37545;45.302;-122.946;2022-08-19T02:46:37;100469.78;;;29.51;47.39
51468;BME280;37545;45.302;-122.946;2022-08-19T02:49:08;100479.50;;;29.52;50.11
51468;BME280;37545;45.302;-122.946;2022-08-19T02:51:38;100489.53;;;29.47;49.58
51468;BME280;37545;45.302;-122.946;2022-08-19T02:54:08;100471.63;;;29.33;48.55
51468;BME280;37545;45.302;-122.946;2022-08-19T02:56:38;100457.75;;;29.26;48.51
51468;BME280;37545;45.302;-122.946;2022-08-19T02:59:07;100458.88;;;29.22;48.92
51468;BME280;37545;45.302;-122.946;2022-08-19T03:01:38;100460.91;;;29.17;50.53
51468;BME280;37545;45.302;-122.946;2022-08-19T03:04:10;100466.78;;;29.06;49.75
51468;BME280;37545;45.302;-122.946;2022-08-19T03:06:40;100469.59;;;29.03;51.67
51468;BME280;37545;45.302;-122.946;2022-08-19T03:09:09;100469.84;;;28.98;51.14
51468;BME280;37545;45.302;-122.946;2022-08-19T03:11:38;100474.38;;;28.96;50.73
51468;BME280;37545;45.302;-122.946;2022-08-19T03:14:08;100468.44;;;28.91;50.77
51468;BME280;37545;45.302;-122.946;2022-08-19T03:16:42;100469.34;;;28.90;50.90
51468;BME280;37545;45.302;-122.946;2022-08-19T03:19:13;100474.84;;;28.87;51.63
51468;BME280;37545;45.302;-122.946;2022-08-19T03:21:42;100479.47;;;28.83;51.49
51468;BME280;37545;45.302;-122.946;2022-08-19T03:24:13;100462.81;;;28.80;51.61
51468;BME280;37545;45.302;-122.946;2022-08-19T03:26:44;100467.34;;;28.78;51.07
51468;BME280;37545;45.302;-122.946;2022-08-19T03:29:20;100468.44;;;28.74;51.89
51468;BME280;37545;45.302;-122.946;2022-08-19T03:31:49;100471.16;;;28.72;51.27
51468;BME280;37545;45.302;-122.946;2022-08-19T03:34:21;100481.91;;;28.71;50.86
51468;BME280;37545;45.302;-122.946;2022-08-19T03:36:53;100469.63;;;28.68;51.33
51468;BME280;37545;45.302;-122.946;2022-08-19T03:39:22;100466.06;;;28.68;51.04
51468;BME280;37545;45.302;-122.946;2022-08-19T03:41:53;100470.63;;;28.66;52.84
51468;BME280;37545;45.302;-122.946;2022-08-19T03:44:24;100475.41;;;28.59;53.05
51468;BME280;37545;45.302;-122.946;2022-08-19T03:46:54;100475.69;;;28.53;52.75
51468;BME280;37545;45.302;-122.946;2022-08-19T03:49:27;100482.03;;;28.50;52.45
51468;BME280;37545;45.302;-122.946;2022-08-19T03:51:57;100480.28;;;28.49;52.61
51468;BME280;37545;45.302;-122.946;2022-08-19T03:54:26;100482.09;;;28.49;52.31
51468;BME280;37545;45.302;-122.946;2022-08-19T03:56:56;100480.44;;;28.46;52.32
51468;BME280;37545;45.302;-122.946;2022-08-19T03:59:27;100481.44;;;28.44;52.98
51468;BME280;37545;45.302;-122.946;2022-08-19T04:01:58;100490.28;;;28.44;52.97
51468;BME280;37545;45.302;-122.946;2022-08-19T04:04:29;100495.75;;;28.41;53.55
51468;BME280;37545;45.302;-122.946;2022-08-19T04:06:57;100500.59;;;28.33;54.56
51468;BME280;37545;45.302;-122.946;2022-08-19T04:09:26;100507.94;;;28.28;55.28
51468;BME280;37545;45.302;-122.946;2022-08-19T04:11:57;100499.31;;;28.23;54.81
51468;BME280;37545;45.302;-122.946;2022-08-19T04:14:28;100510.09;;;28.19;54.46
51468;BME280;37545;45.302;-122.946;2022-08-19T04:16:58;100504.06;;;28.16;54.26
51468;BME280;37545;45.302;-122.946;2022-08-19T04:19:29;100500.03;;;28.07;54.77
51468;BME280;37545;45.302;-122.946;2022-08-19T04:21:58;100502.69;;;28.07;56.55
51468;BME280;37545;45.302;-122.946;2022-08-19T04:24:27;100504.78;;;28.01;55.90
51468;BME280;37545;45.302;-122.946;2022-08-19T04:26:55;100516.28;;;28.01;55.62
51468;BME280;37545;45.302;-122.946;2022-08-19T04:29:25;100515.63;;;27.96;55.93
51468;BME280;37545;45.302;-122.946;2022-08-19T04:31:54;100507.72;;;27.94;55.92
51468;BME280;37545;45.302;-122.946;2022-08-19T04:34:24;100514.84;;;27.94;55.75
51468;BME280;37545;45.302;-122.946;2022-08-19T04:36:57;100504.38;;;27.91;55.31
51468;BME280;37545;45.302;-122.946;2022-08-19T04:39:28;100525.47;;;27.94;56.51
51468;BME280;37545;45.302;-122.946;2022-08-19T04:42:13;100520.47;;;27.88;56.88
51468;BME280;37545;45.302;-122.946;2022-08-19T04:44:59;100520.63;;;27.83;56.57
51468;BME280;37545;45.302;-122.946;2022-08-19T04:47:28;100511.09;;;27.79;56.98
51468;BME280;37545;45.302;-122.946;2022-08-19T04:49:59;100511.19;;;27.76;56.58
51468;BME280;37545;45.302;-122.946;2022-08-19T04:52:29;100517.53;;;27.73;56.72
51468;BME280;37545;45.302;-122.946;2022-08-19T04:55:04;100523.84;;;27.71;57.96
51468;BME280;37545;45.302;-122.946;2022-08-19T04:57:33;100518.69;;;27.68;57.63
51468;BME280;37545;45.302;-122.946;2022-08-19T05:00:07;100513.56;;;27.63;57.59
51468;BME280;37545;45.302;-122.946;2022-08-19T05:02:36;100521.56;;;27.63;57.56
51468;BME280;37545;45.302;-122.946;2022-08-19T05:05:05;100517.25;;;27.61;57.37
51468;BME280;37545;45.302;-122.946;2022-08-19T05:07:36;100544.69;;;27.61;57.61
51468;BME280;37545;45.302;-122.946;2022-08-19T05:10:07;100535.06;;;27.58;58.25
51468;BME280;37545;45.302;-122.946;2022-08-19T05:12:36;100533.31;;;27.57;57.60
51468;BME280;37545;45.302;-122.946;2022-08-19T05:15:06;100536.09;;;27.54;57.09
51468;BME280;37545;45.302;-122.946;2022-08-19T05:17:34;100541.47;;;27.53;58.45
51468;BME280;37545;45.302;-122.946;2022-08-19T05:20:04;100547.69;;;27.53;58.25
51468;BME280;37545;45.302;-122.946;2022-08-19T05:22:55;100556.56;;;27.52;57.83
51468;BME280;37545;45.302;-122.946;2022-08-19T05:25:23;100552.13;;;27.53;57.44
51468;BME280;37545;45.302;-122.946;2022-08-19T05:27:55;100559.22;;;27.52;57.04
51468;BME280;37545;45.302;-122.946;2022-08-19T05:30:26;100553.13;;;27.50;57.00
51468;BME280;37545;45.302;-122.946;2022-08-19T05:32:55;100562.84;;;27.51;58.45
51468;BME280;37545;45.302;-122.946;2022-08-19T05:35:26;100554.31;;;27.43;58.33
51468;BME280;37545;45.302;-122.946;2022-08-19T05:38:02;100545.75;;;27.36;58.79
51468;BME280;37545;45.302;-122.946;2022-08-19T05:40:31;100543.28;;;27.32;59.12
51468;BME280;37545;45.302;-122.946;2022-08-19T05:42:59;100545.16;;;27.30;59.11
51468;BME280;37545;45.302;-122.946;2022-08-19T05:45:30;100545.28;;;27.27;59.02
51468;BME280;37545;45.302;-122.946;2022-08-19T05:47:59;100546.28;;;27.24;59.56
51468;BME280;37545;45.302;-122.946;2022-08-19T05:50:28;100552.66;;;27.20;60.24
51468;BME280;37545;45.302;-122.946;2022-08-19T05:52:56;100554.69;;;27.13;59.25
51468;BME280;37545;45.302;-122.946;2022-08-19T05:55:26;100552.59;;;27.00;59.42
51468;BME280;37545;45.302;-122.946;2022-08-19T05:57:55;100544.38;;;26.85;59.44
51468;BME280;37545;45.302;-122.946;2022-08-19T06:00:24;100556.16;;;26.78;60.57
51468;BME280;37545;45.302;-122.946;2022-08-19T06:02:52;100553.63;;;26.75;60.40
51468;BME280;37545;45.302;-122.946;2022-08-19T06:05:22;100553.69;;;26.73;58.53
51468;BME280;37545;45.302;-122.946;2022-08-19T06:07:51;100548.63;;;26.67;58.51
51468;BME280;37545;45.302;-122.946;2022-08-19T06:10:19;100556.59;;;26.67;58.09
51468;BME280;37545;45.302;-122.946;2022-08-19T06:12:50;100555.13;;;26.60;59.04
51468;BME280;37545;45.302;-122.946;2022-08-19T06:15:18;100550.38;;;26.45;58.97
51468;BME280;37545;45.302;-122.946;2022-08-19T06:17:49;100548.91;;;26.38;59.52
51468;BME280;37545;45.302;-122.946;2022-08-19T06:20:18;100547.38;;;26.32;60.09
51468;BME280;37545;45.302;-122.946;2022-08-19T06:22:48;100545.19;;;26.20;59.32
51468;BME280;37545;45.302;-122.946;2022-08-19T06:25:18;100546.22;;;26.16;59.20
51468;BME280;37545;45.302;-122.946;2022-08-19T06:27:46;100546.22;;;26.16;60.47
51468;BME280;37545;45.302;-122.946;2022-08-19T06:30:17;100548.81;;;26.17;61.98
51468;BME280;37545;45.302;-122.946;2022-08-19T06:32:45;100550.66;;;26.15;61.00
51468;BME280;37545;45.302;-122.946;2022-08-19T06:35:14;100558.78;;;26.10;59.33
51468;BME280;37545;45.302;-122.946;2022-08-19T06:37:42;100548.38;;;26.06;59.30
51468;BME280;37545;45.302;-122.946;2022-08-19T06:40:11;100553.16;;;25.96;59.18
51468;BME280;37545;45.302;-122.946;2022-08-19T06:42:40;100562.25;;;25.89;63.29
51468;BME280;37545;45.302;-122.946;2022-08-19T06:45:09;100565.44;;;25.74;63.22
51468;BME280;37545;45.302;-122.946;2022-08-19T06:47:39;100568.53;;;25.61;61.33
51468;BME280;37545;45.302;-122.946;2022-08-19T06:50:13;100573.13;;;25.56;60.73
51468;BME280;37545;45.302;-122.946;2022-08-19T06:52:41;100575.88;;;25.53;61.82
51468;BME280;37545;45.302;-122.946;2022-08-19T06:55:10;100573.50;;;25.45;61.17
51468;BME280;37545;45.302;-122.946;2022-08-19T06:57:38;100578.97;;;25.41;60.21
51468;BME280;37545;45.302;-122.946;2022-08-19T07:00:09;100580.81;;;25.39;61.90
51468;BME280;37545;45.302;-122.946;2022-08-19T07:02:41;100584.44;;;25.36;60.81
51468;BME280;37545;45.302;-122.946;2022-08-19T07:05:10;100582.63;;;25.37;60.29
51468;BME280;37545;45.302;-122.946;2022-08-19T07:07:38;100578.34;;;25.33;59.92
51468;BME280;37545;45.302;-122.946;2022-08-19T07:10:09;100587.44;;;25.25;61.76
51468;BME280;37545;45.302;-122.946;2022-08-19T07:12:38;100581.72;;;25.11;60.15
51468;BME280;37545;45.302;-122.946;2022-08-19T07:15:08;100590.03;;;24.99;59.90
51468;BME280;37545;45.302;-122.946;2022-08-19T07:17:37;100585.28;;;24.83;60.65
51468;BME280;37545;45.302;-122.946;2022-08-19T07:20:09;100599.69;;;24.73;60.26
51468;BME280;37545;45.302;-122.946;2022-08-19T07:22:38;100603.56;;;24.63;60.03
51468;BME280;37545;45.302;-122.946;2022-08-19T07:25:08;100602.22;;;24.50;60.94
51468;BME280;37545;45.302;-122.946;2022-08-19T07:27:37;100609.38;;;24.44;60.59
51468;BME280;37545;45.302;-122.946;2022-08-19T07:30:06;100613.00;;;24.42;61.25
51468;BME280;37545;45.302;-122.946;2022-08-19T07:32:38;100618.41;;;24.37;60.46
51468;BME280;37545;45.302;-122.946;2022-08-19T07:35:09;100622.06;;;24.33;61.07
51468;BME280;37545;45.302;-122.946;2022-08-19T07:37:38;100618.75;;;24.25;60.50
51468;BME280;37545;45.302;-122.946;2022-08-19T07:40:11;100614.66;;;24.15;60.37
51468;BME280;37545;45.302;-122.946;2022-08-19T07:42:40;100623.72;;;24.06;60.37
51468;BME280;37545;45.302;-122.946;2022-08-19T07:45:09;100622.31;;;23.94;60.95
51468;BME280;37545;45.302;-122.946;2022-08-19T07:47:38;100621.72;;;23.83;61.29
51468;BME280;37545;45.302;-122.946;2022-08-19T07:50:09;100619.50;;;23.66;61.92
51468;BME280;37545;45.302;-122.946;2022-08-19T07:52:39;100620.75;;;23.53;62.71
51468;BME280;37545;45.302;-122.946;2022-08-19T07:55:10;100618.34;;;23.44;62.89
51468;BME280;37545;45.302;-122.946;2022-08-19T07:57:38;100623.75;;;23.39;62.92
51468;BME280;37545;45.302;-122.946;2022-08-19T08:00:08;100621.25;;;23.33;63.26
51468;BME280;37545;45.302;-122.946;2022-08-19T08:02:36;100624.88;;;23.29;63.17
51468;BME280;37545;45.302;-122.946;2022-08-19T08:05:07;100625.84;;;23.25;63.61
51468;BME280;37545;45.302;-122.946;2022-08-19T08:07:52;100627.78;;;23.18;64.38
51468;BME280;37545;45.302;-122.946;2022-08-19T08:10:37;100630.28;;;23.23;64.53
51468;BME280;37545;45.302;-122.946;2022-08-19T08:13:06;100628.50;;;23.25;64.03
51468;BME280;37545;45.302;-122.946;2022-08-19T08:15:35;100632.03;;;23.25;64.17
51468;BME280;37545;45.302;-122.946;2022-08-19T08:18:05;100639.03;;;23.25;64.17
51468;BME280;37545;45.302;-122.946;2022-08-19T08:20:35;100638.22;;;23.23;63.78
51468;BME280;37545;45.302;-122.946;2022-08-19T08:23:04;100640.94;;;23.19;63.83
51468;BME280;37545;45.302;-122.946;2022-08-19T08:25:56;100636.63;;;23.15;63.46
51468;BME280;37545;45.302;-122.946;2022-08-19T08:28:26;100634.16;;;23.09;63.53
51468;BME280;37545;45.302;-122.946;2022-08-19T08:30:56;100633.34;;;23.06;64.00
51468;BME280;37545;45.302;-122.946;2022-08-19T08:33:27;100641.38;;;23.03;63.51
51468;BME280;37545;45.302;-122.946;2022-08-19T08:35:58;100643.16;;;23.00;64.09
51468;BME280;37545;45.302;-122.946;2022-08-19T08:38:26;100643.25;;;22.96;63.94
51468;BME280;37545;45.302;-122.946;2022-08-19T08:40:59;100647.72;;;22.92;64.21
51468;BME280;37545;45.302;-122.946;2022-08-19T08:43:34;100657.50;;;22.87;63.94
51468;BME280;37545;45.302;-122.946;2022-08-19T08:46:06;100660.28;;;22.81;64.05
51468;BME280;37545;45.302;-122.946;2022-08-19T08:48:40;100653.34;;;22.77;64.39
51468;BME280;37545;45.302;-122.946;2022-08-19T08:51:18;100663.09;;;22.73;64.84
51468;BME280;37545;45.302;-122.946;2022-08-19T08:53:49;100658.88;;;22.66;64.54
51468;BME280;37545;45.302;-122.946;2022-08-19T08:56:19;100662.47;;;22.61;65.10
51468;BME280;37545;45.302;-122.946;2022-08-19T08:58:54;100661.81;;;22.52;65.22
51468;BME280;37545;45.302;-122.946;2022-08-19T09:01:25;100668.03;;;22.48;65.83
51468;BME280;37545;45.302;-122.946;2022-08-19T09:03:54;100669.03;;;22.43;66.55
51468;BME280;37545;45.302;-122.946;2022-08-19T09:06:29;100668.41;;;22.30;66.66
51468;BME280;37545;45.302;-122.946;2022-08-19T09:09:05;100667.72;;;22.20;66.46
51468;BME280;37545;45.302;-122.946;2022-08-19T09:11:55;100671.31;;;22.14;66.43
51468;BME280;37545;45.302;-122.946;2022-08-19T09:14:34;100671.41;;;22.10;66.85
51468;BME280;37545;45.302;-122.946;2022-08-19T09:17:04;100678.47;;;22.08;67.38
51468;BME280;37545;45.302;-122.946;2022-08-19T09:19:34;100681.19;;;22.03;66.93
51468;BME280;37545;45.302;-122.946;2022-08-19T09:22:05;100681.25;;;22.00;67.13
51468;BME280;37545;45.302;-122.946;2022-08-19T09:24:34;100688.38;;;21.95;66.64
51468;BME280;37545;45.302;-122.946;2022-08-19T09:27:02;100691.22;;;21.84;67.03
51468;BME280;37545;45.302;-122.946;2022-08-19T09:29:31;100696.56;;;21.78;66.95
51468;BME280;37545;45.302;-122.946;2022-08-19T09:31:59;100687.03;;;21.74;67.20
51468;BME280;37545;45.302;-122.946;2022-08-19T09:34:28;100694.94;;;21.71;67.05
51468;BME280;37545;45.302;-122.946;2022-08-19T09:36:57;100702.06;;;21.67;67.34
51468;BME280;37545;45.302;-122.946;2022-08-19T09:39:28;100697.72;;;21.65;67.55
51468;BME280;37545;45.302;-122.946;2022-08-19T09:41:57;100705.66;;;21.62;67.85
51468;BME280;37545;45.302;-122.946;2022-08-19T09:44:25;100703.94;;;21.58;67.89
51468;BME280;37545;45.302;-122.946;2022-08-19T09:46:54;100699.66;;;21.52;68.27
51468;BME280;37545;45.302;-122.946;2022-08-19T09:49:22;100701.59;;;21.42;68.22
51468;BME280;37545;45.302;-122.946;2022-08-19T09:51:51;100710.38;;;21.38;68.02
51468;BME280;37545;45.302;-122.946;2022-08-19T09:54:22;100703.44;;;21.32;68.19
51468;BME280;37545;45.302;-122.946;2022-08-19T09:56:53;100708.78;;;21.28;68.38
51468;BME280;37545;45.302;-122.946;2022-08-19T09:59:22;100703.63;;;21.22;68.87
51468;BME280;37545;45.302;-122.946;2022-08-19T10:01:50;100704.56;;;21.16;69.11
51468;BME280;37545;45.302;-122.946;2022-08-19T10:04:19;100711.69;;;21.09;70.14
51468;BME280;37545;45.302;-122.946;2022-08-19T10:06:49;100700.44;;;21.00;70.05
51468;BME280;37545;45.302;-122.946;2022-08-19T10:09:18;100702.41;;;20.85;71.13
51468;BME280;37545;45.302;-122.946;2022-08-19T10:11:46;100708.56;;;20.83;71.14
51468;BME280;37545;45.302;-122.946;2022-08-19T10:14:17;100717.38;;;20.79;71.24
51468;BME280;37545;45.302;-122.946;2022-08-19T10:16:48;100723.63;;;20.73;71.50
51468;BME280;37545;45.302;-122.946;2022-08-19T10:19:17;100727.13;;;20.72;71.56
51468;BME280;37545;45.302;-122.946;2022-08-19T10:21:46;100728.88;;;20.73;71.55
51468;BME280;37545;45.302;-122.946;2022-08-19T10:24:15;100726.19;;;20.75;71.24
51468;BME280;37545;45.302;-122.946;2022-08-19T10:26:45;100724.47;;;20.74;71.17
51468;BME280;37545;45.302;-122.946;2022-08-19T10:29:15;100731.44;;;20.76;71.06
51468;BME280;37545;45.302;-122.946;2022-08-19T10:31:45;100729.72;;;20.74;71.24
51468;BME280;37545;45.302;-122.946;2022-08-19T10:34:14;100724.50;;;20.70;71.34
51468;BME280;37545;45.302;-122.946;2022-08-19T10:36:43;100718.41;;;20.67;71.70
51468;BME280;37545;45.302;-122.946;2022-08-19T10:39:12;100721.97;;;20.64;71.66
51468;BME280;37545;45.302;-122.946;2022-08-19T10:41:41;100725.50;;;20.62;71.90
51468;BME280;37545;45.302;-122.946;2022-08-19T10:44:11;100728.13;;;20.60;71.73
51468;BME280;37545;45.302;-122.946;2022-08-19T10:46:44;100720.25;;;20.62;71.63
51468;BME280;37545;45.302;-122.946;2022-08-19T10:49:13;100725.50;;;20.62;72.11
51468;BME280;37545;45.302;-122.946;2022-08-19T10:51:42;100736.03;;;20.60;71.94
51468;BME280;37545;45.302;-122.946;2022-08-19T10:54:27;100740.38;;;20.61;72.00
51468;BME280;37545;45.302;-122.946;2022-08-19T10:57:09;100743.97;;;20.57;72.21
51468;BME280;37545;45.302;-122.946;2022-08-19T10:59:37;100746.53;;;20.60;72.54
51468;BME280;37545;45.302;-122.946;2022-08-19T11:02:09;100758.00;;;20.53;73.02
51468;BME280;37545;45.302;-122.946;2022-08-19T11:04:38;100754.50;;;20.51;73.24
51468;BME280;37545;45.302;-122.946;2022-08-19T11:07:08;100754.50;;;20.51;73.13
51468;BME280;37545;45.302;-122.946;2022-08-19T11:09:40;100750.97;;;20.52;73.05
51468;BME280;37545;45.302;-122.946;2022-08-19T11:12:10;100749.25;;;20.51;73.13
51468;BME280;37545;45.302;-122.946;2022-08-19T11:14:39;100747.59;;;20.44;73.64
51468;BME280;37545;45.302;-122.946;2022-08-19T11:17:10;100750.22;;;20.41;73.59
51468;BME280;37545;45.302;-122.946;2022-08-19T11:19:40;100756.38;;;20.40;73.67
51468;BME280;37545;45.302;-122.946;2022-08-19T11:22:09;100752.03;;;20.39;74.05
51468;BME280;37545;45.302;-122.946;2022-08-19T11:24:37;100758.16;;;20.39;73.89
51468;BME280;37545;45.302;-122.946;2022-08-19T11:27:08;100752.06;;;20.34;74.06
51468;BME280;37545;45.302;-122.946;2022-08-19T11:29:39;100759.97;;;20.33;74.54
51468;BME280;37545;45.302;-122.946;2022-08-19T11:32:10;100759.97;;;20.33;74.69
51468;BME280;37545;45.302;-122.946;2022-08-19T11:34:40;100762.56;;;20.36;74.77
51468;BME280;37545;45.302;-122.946;2022-08-19T11:37:09;100766.00;;;20.41;74.48
51468;BME280;37545;45.302;-122.946;2022-08-19T11:39:38;100759.81;;;20.46;73.81
51468;BME280;37545;45.302;-122.946;2022-08-19T11:42:07;100759.75;;;20.51;74.33
51468;BME280;37545;45.302;-122.946;2022-08-19T11:44:48;100758.91;;;20.50;73.84
51468;BME280;37545;45.302;-122.946;2022-08-19T11:47:19;100767.69;;;20.48;74.22
51468;BME280;37545;45.302;-122.946;2022-08-19T11:49:48;100763.34;;;20.42;73.98
51468;BME280;37545;45.302;-122.946;2022-08-19T11:52:16;100768.63;;;20.41;74.17
51468;BME280;37545;45.302;-122.946;2022-08-19T11:54:45;100771.28;;;20.39;74.17
51468;BME280;37545;45.302;-122.946;2022-08-19T11:57:13;100775.69;;;20.36;74.59
51468;BME280;37545;45.302;-122.946;2022-08-19T11:59:48;100773.97;;;20.35;74.52
51468;BME280;37545;45.302;-122.946;2022-08-19T12:02:18;100775.75;;;20.31;74.88
51468;BME280;37545;45.302;-122.946;2022-08-19T12:04:47;100780.13;;;20.30;75.05
51468;BME280;37545;45.302;-122.946;2022-08-19T12:07:16;100781.94;;;20.24;75.17
51468;BME280;37545;45.302;-122.946;2022-08-19T12:09:45;100776.69;;;20.24;75.25
51468;BME280;37545;45.302;-122.946;2022-08-19T12:12:13;100773.19;;;20.23;75.22
51468;BME280;37545;45.302;-122.946;2022-08-19T12:14:42;100785.47;;;20.21;75.56
51468;BME280;37545;45.302;-122.946;2022-08-19T12:17:11;100786.38;;;20.17;75.48
51468;BME280;37545;45.302;-122.946;2022-08-19T12:19:41;100787.25;;;20.18;75.42
51468;BME280;37545;45.302;-122.946;2022-08-19T12:22:09;100785.53;;;20.17;75.58
51468;BME280;37545;45.302;-122.946;2022-08-19T12:24:38;100785.53;;;20.17;75.68
51468;BME280;37545;45.302;-122.946;2022-08-19T12:27:07;100791.63;;;20.16;75.72
51468;BME280;37545;45.302;-122.946;2022-08-19T12:29:35;100791.63;;;20.17;75.51
51468;BME280;37545;45.302;-122.946;2022-08-19T12:32:04;100792.50;;;20.18;75.69
51468;BME280;37545;45.302;-122.946;2022-08-19T12:34:40;100784.66;;;20.13;75.81
51468;BME280;37545;45.302;-122.946;2022-08-19T12:37:09;100784.69;;;20.10;76.17